Observations for BRIZE NORTON RA, United Kingdom (EGVN)

EGVN 112250Z 10004KT 9999 FEW036 BKN150 05/05 Q1021 NOSIG   
EGVN 112250Z 10004KT 9999 FEW036 BKN150 05/05 Q1021 BLU NOSIG
EGVN 112150Z 12005KT 9999 FEW022 BKN150 06/05 Q1021 BLU NOSIG   
EGVN 112150Z 12005KT 9999 FEW022 BKN150 06/05 Q1021 NOSIG
EGVN 112050Z 11005KT 9999 FEW026 SCT038 BKN140 06/05 Q1021 BLU NOSIG
EGVN 112050Z 11005KT 9999 FEW026 SCT038 BKN140 06/05 Q1021 NOSIG
EGVN 111950Z 13006KT 9999 FEW018 BKN028 07/05 Q1021 BLU NOSIG   
EGVN 111950Z 13006KT 9999 FEW018 BKN028 07/05 Q1021 NOSIG
EGVN 111850Z 14006KT 9999 BKN019 07/05 Q1022 TEMPO FEW018 BKN028
EGVN 111850Z 14006KT 9999 BKN019 07/05 Q1022 WHT TEMPO FEW018 BKN028 BLU
EGVN 111750Z 13005KT 9999 BKN020 07/05 Q1022 TEMPO FEW020 BKN028
EGVN 111750Z 13005KT 9999 BKN020 07/05 Q1022 WHT TEMPO FEW020 BKN028 BLU
EGVN 111650Z 15005KT 9999 -RA SCT022 BKN025 07/05 Q1022 TEMPO FEW020 BKN025 
EGVN 111650Z 15005KT 9999 -RA SCT022 BKN025 07/05 Q1022 WHT TEMPO FEW020 BKN025BLU
EGVN 111550Z 13003KT 9999 BKN030 07/05 Q1022 NOSIG  
EGVN 111550Z 13003KT 9999 BKN030 07/05 Q1022 BLU NOSIG
EGVN 111450Z 15004KT 9999 FEW035 BKN160 08/06 Q1022 BLU NOSIG   
EGVN 111450Z 15004KT 9999 FEW035 BKN160 08/06 Q1022 NOSIG
EGVN 111350Z 13003KT 9999 FEW030 SCT180 09/06 Q1023 BLU NOSIG   
EGVN 111350Z 13003KT 9999 FEW030 SCT180 09/06 Q1023 NOSIG
EGVN 111250Z 09003KT 9999 FEW030 08/05 Q1023 NOSIG  
EGVN 111250Z 09003KT 9999 FEW030 08/05 Q1023 BLU NOSIG
EGVN 111150Z 08001KT 9999 FEW030 07/05 Q1024 NOSIG  
EGVN 111150Z 08001KT 9999 FEW030 07/05 Q1024 BLU NOSIG
EGVN 111131Z 08002KT 8000 HZ FEW030 06/04 Q1024 BLU NOSIG
EGVN 111050Z 08001KT 7000 BR FEW030 05/05 Q1024 BECMG 9999 NSW  
EGVN 111050Z 08001KT 7000 BR FEW030 05/05 Q1024 WHT BECMG 9999 NSW BLU
EGVN 111031Z 08002KT 5000 BR FEW007 04/04 Q1024 WHT BECMG 8000 HZ BLU
EGVN 110950Z 05003KT 4500 BR FEW005 03/03 Q1025 BECMG 6000  
EGVN 110950Z 05003KT 4500 BR FEW005 03/03 Q1025 GRN BECMG 6000 WHT
EGVN 110850Z 05002KT 3700 BR FEW030 01/01 Q1025 GRN BECMG 5000 HZ WHT   
EGVN 110850Z 05002KT 3700 BR FEW030 01/01 Q1025 BECMG 5000 HZ
EGVN 110833Z 06003KT 4000 2500SE BR FEW005 SCT030 01/01 Q1025 YLO1 BECMG 4000 GRN
EGVN 110750Z 03003KT 3700 1600S BR FEW030 01/01 Q1025 YLO2 BECMG 4000 GRN   
EGVN 110750Z 03003KT 3700 1600S BR FEW030 01/01 Q1025 BECMG 4000
EGVN 110641Z 06002KT 1500 BR FEW006 00/00 Q1025 TEMPO 0300 FG BKN000
EGVN 110641Z 06002KT 1500 BR FEW006 00/00 Q1025 AMB TEMPO 0300 FG BKN000 RED
EGVN 110550Z 06002KT 3000 BR SKC 01/00 Q1025 YLO1 TEMPO 2000 YLO2   
EGVN 110550Z 06002KT 3000 BR SKC 01/00 Q1025 TEMPO 2000
EGVN 110450Z 04003KT 5000 BR SKC 01/01 Q1025 TEMPO 2000 MIFG
EGVN 110450Z 04003KT 5000 BR SKC 01/01 Q1025 WHT TEMPO 2000 MIFG YLO2
EGVN 110350Z 06002KT 5000 BR SKC 02/01 Q1025 NOSIG  
EGVN 110350Z 06002KT 5000 BR SKC 02/01 Q1025 WHT NOSIG
EGVN 110250Z 00000KT 9999 FEW048 02/02 Q1026 NOSIG  
EGVN 110250Z 00000KT 9999 FEW048 02/02 Q1026 BLU NOSIG
EGVN 110150Z 10002KT 9999 FEW048 03/03 Q1026 NOSIG  
EGVN 110150Z 10002KT 9999 FEW048 03/03 Q1026 BLU NOSIG
EGVN 110050Z 09002KT CAVOK 05/04 Q1026 NOSIG
EGVN 110050Z 09002KT CAVOK 05/04 Q1026 BLU NOSIG
EGVN 102350Z 25002KT CAVOK 05/04 Q1027 NOSIG
EGVN 102350Z 25002KT CAVOK 05/04 Q1027 BLU NOSIG
EGVN 102250Z 26002KT CAVOK 05/04 Q1027 NOSIG
EGVN 102250Z 26002KT CAVOK 05/04 Q1027 BLU NOSIG
EGVN 102150Z 00000KT CAVOK 05/04 Q1027 NOSIG
EGVN 102150Z 00000KT CAVOK 05/04 Q1027 BLU NOSIG